createdAt,value
2022-09-05T00:02:19.607Z,101648.09
2022-09-05T00:04:49.056Z,101644.50
2022-09-05T00:07:37.391Z,101655.69
2022-09-05T00:10:21.301Z,101660.91
2022-09-05T00:13:07.145Z,101654.75
2022-09-05T00:15:37.542Z,101650.25
2022-09-05T00:21:10.470Z,101659.94
2022-09-05T00:24:25.045Z,101654.47
2022-09-05T00:24:50.309Z,101654.47
2022-09-05T00:27:35.299Z,101654.84
2022-09-05T00:31:50.792Z,101653.34
2022-09-05T00:33:29.141Z,101649.03
2022-09-05T00:36:23.926Z,101654.03
2022-09-05T00:39:18.112Z,101656.53
2022-09-05T00:41:49.553Z,101654.03
2022-09-05T00:44:19.031Z,101653.34
2022-09-05T00:46:57.852Z,101651.69
2022-09-05T00:49:32.977Z,101649.88
2022-09-05T00:52:21.736Z,101651.69
2022-09-05T00:55:09.511Z,101652.75
2022-09-05T00:58:13.751Z,101655.56
2022-09-05T01:01:01.156Z,101657.16
2022-09-05T01:03:52.545Z,101658.19
2022-09-05T01:06:45.283Z,101657.34
2022-09-05T01:09:25.111Z,101655.66
2022-09-05T01:12:35.006Z,101653.88
2022-09-05T01:15:20.937Z,101652.19
2022-09-05T01:17:56.634Z,101659.25
2022-09-05T01:20:53.379Z,101655.88
2022-09-05T01:23:40.991Z,101654.19
2022-09-05T01:26:07.581Z,101656.91
2022-09-05T01:29:15.589Z,101657.97
2022-09-05T01:31:50.411Z,101664.31
2022-09-05T01:34:39.187Z,101662.63
2022-09-05T01:37:26.687Z,101661.75
2022-09-05T01:40:19.628Z,101654.06
2022-09-05T01:43:36.885Z,101662.06
2022-09-05T01:46:22.633Z,101658.59
2022-09-05T01:48:51.367Z,101651.81
2022-09-05T01:51:31.418Z,101651.19
2022-09-05T01:54:07.296Z,101653.28
2022-09-05T01:56:55.337Z,101650.94
2022-09-05T01:59:40.911Z,101654.91
2022-09-05T02:02:56.256Z,101650.34
2022-09-05T02:05:51.867Z,101656.50
2022-09-05T02:08:36.865Z,101650.78
2022-09-05T02:11:08.421Z,101651.81
2022-09-05T02:13:34.928Z,101656.28
2022-09-05T02:16:31.400Z,101651.63
2022-09-05T02:19:10.636Z,101657.47
2022-09-05T02:21:56.114Z,101653.53
2022-09-05T02:24:46.197Z,101660.75
2022-09-05T02:28:04.292Z,101660.59
2022-09-05T02:30:25.386Z,101667.13
2022-09-05T02:32:57.773Z,101668.38
2022-09-05T02:35:46.060Z,101663.19
2022-09-05T02:41:20.285Z,101665.91
2022-09-05T02:45:13.048Z,101663.88
2022-09-05T02:45:16.850Z,101671.28
2022-09-05T02:47:23.487Z,101676.38
2022-09-05T02:54:00.468Z,101670.25
2022-09-05T02:57:29.370Z,101672.97
2022-09-05T02:57:39.224Z,101667.06
2022-09-05T02:59:09.118Z,101668.09
2022-09-05T03:02:23.156Z,101665.56
2022-09-05T03:05:07.135Z,101666.88
2022-09-05T03:07:45.813Z,101660.88
2022-09-05T03:10:49.836Z,101662.91
2022-09-05T03:13:48.973Z,101657.50
2022-09-05T03:16:47.638Z,101660.66
2022-09-05T03:19:46.703Z,101663.28
2022-09-05T03:22:22.300Z,101663.03
2022-09-05T03:24:55.964Z,101659.56
2022-09-05T03:28:04.084Z,101655.13
2022-09-05T03:31:22.262Z,101662.19
2022-09-05T03:34:14.175Z,101660.50
2022-09-05T03:36:59.439Z,101664.97
2022-09-05T03:39:47.833Z,101662.56
2022-09-05T03:42:30.446Z,101663.50
2022-09-05T03:45:16.330Z,101661.03
2022-09-05T03:48:27.883Z,101659.34
2022-09-05T03:56:56.911Z,101662.09
2022-09-05T03:57:25.710Z,101671.00
2022-09-05T03:58:41.887Z,101665.75
2022-09-05T04:02:45.079Z,101670.91
2022-09-05T04:08:18.542Z,101666.88
2022-09-05T04:08:24.099Z,101672.03
2022-09-05T04:10:52.454Z,101667.13
2022-09-05T04:13:30.991Z,101677.66
2022-09-05T04:16:18.309Z,101671.56
2022-09-05T04:19:05.707Z,101667.44
2022-09-05T04:21:38.890Z,101674.84
2022-09-05T04:24:13.551Z,101673.06
2022-09-05T04:27:17.602Z,101671.28
2022-09-05T04:30:38.865Z,101674.66
2022-09-05T04:33:37.396Z,101678.06
2022-09-05T04:36:26.601Z,101673.63
2022-09-05T04:39:24.890Z,101680.59
2022-09-05T04:42:24.152Z,101673.63
2022-09-05T04:44:57.120Z,101679.75
2022-09-05T04:47:38.104Z,101684.16
2022-09-05T04:50:23.384Z,101685.94
2022-09-05T04:53:04.200Z,101687.91
2022-09-05T04:55:41.580Z,101687.31
2022-09-05T04:59:29.328Z,101692.78
2022-09-05T05:06:00.969Z,101694.06
2022-09-05T05:06:12.750Z,101690.75
2022-09-05T05:07:32.848Z,101698.13
2022-09-05T05:10:52.675Z,101693.81
2022-09-05T05:17:59.705Z,101692.88
2022-09-05T05:18:12.505Z,101697.72
2022-09-05T05:19:21.692Z,101694.91
2022-09-05T05:21:55.206Z,101695.00
2022-09-05T05:24:36.548Z,101697.44
2022-09-05T05:27:32.614Z,101706.75
2022-09-05T05:30:04.860Z,101700.28
2022-09-05T05:32:46.221Z,101707.03
2022-09-05T05:35:23.490Z,101698.78
2022-09-05T05:38:04.078Z,101708.22
2022-09-05T05:40:39.740Z,101713.66
2022-09-05T05:43:34.524Z,101716.84
2022-09-05T05:46:01.935Z,101711.91
2022-09-05T05:48:37.142Z,101720.81
2022-09-05T05:51:51.928Z,101710.38
2022-09-05T05:54:35.486Z,101722.09
2022-09-05T05:57:30.133Z,101718.78
2022-09-05T06:00:43.462Z,101709.59
2022-09-05T06:03:42.958Z,101721.47
2022-09-05T06:06:37.732Z,101721.53
2022-09-05T06:14:47.986Z,101717.53
2022-09-05T06:15:00.310Z,101717.88
2022-09-05T06:15:26.733Z,101720.94
2022-09-05T06:17:53.969Z,101724.97
2022-09-05T06:22:04.999Z,101717.38
2022-09-05T06:24:15.729Z,101722.97
2022-09-05T06:27:23.188Z,101724.34
2022-09-05T06:29:55.712Z,101711.69
2022-09-05T06:32:43.138Z,101715.72
2022-09-05T06:35:40.474Z,101719.81
2022-09-05T06:38:24.589Z,101727.19
2022-09-05T06:41:21.310Z,101721.38
2022-09-05T06:44:06.414Z,101730.16
2022-09-05T06:47:22.835Z,101727.63
2022-09-05T06:49:46.099Z,101731.09
2022-09-05T06:52:29.027Z,101724.94
2022-09-05T06:55:27.485Z,101716.56
2022-09-05T06:58:21.935Z,101720.84
2022-09-05T07:00:59.686Z,101722.09
2022-09-05T07:03:41.342Z,101725.03
2022-09-05T07:06:19.830Z,101724.69
2022-09-05T07:08:53.982Z,101717.06
2022-09-05T07:11:24.861Z,101719.88
2022-09-05T07:14:01.591Z,101716.66
2022-09-05T07:16:37.857Z,101726.34
2022-09-05T07:19:24.445Z,101726.34
2022-09-05T07:22:02.922Z,101735.78
2022-09-05T07:24:45.584Z,101733.28
2022-09-05T07:27:33.796Z,101739.22
2022-09-05T07:30:19.432Z,101741.44
2022-09-05T07:32:51.034Z,101735.66
2022-09-05T07:35:31.191Z,101741.19
2022-09-05T07:38:15.166Z,101738.63
2022-09-05T07:41:01.887Z,101739.38
2022-09-05T07:43:43.566Z,101747.06
2022-09-05T07:46:16.150Z,101742.13
2022-09-05T07:48:56.008Z,101746.00
2022-09-05T07:56:49.253Z,101736.09
2022-09-05T07:56:53.747Z,101733.94
2022-09-05T07:57:30.936Z,101736.31
2022-09-05T08:00:07.721Z,101741.25
2022-09-05T08:02:54.804Z,101744.97
2022-09-05T08:05:34.255Z,101746.03
2022-09-05T08:08:08.064Z,101743.97
2022-09-05T08:11:25.629Z,101744.41
2022-09-05T08:13:42.688Z,101741.72
2022-09-05T08:16:19.453Z,101734.94
2022-09-05T08:18:52.786Z,101735.31
2022-09-05T08:21:27.167Z,101741.66
2022-09-05T08:24:14.125Z,101733.44
2022-09-05T08:27:16.733Z,101734.72
2022-09-05T08:30:25.142Z,101734.81
2022-09-05T08:32:57.493Z,101739.53
2022-09-05T08:35:44.065Z,101728.72
2022-09-05T08:38:14.938Z,101726.06
2022-09-05T08:40:51.553Z,101729.88
2022-09-05T08:45:39.550Z,101726.59
2022-09-05T08:46:42.291Z,101723.75
2022-09-05T08:49:45.553Z,101719.19
2022-09-05T08:52:53.547Z,101718.38
2022-09-05T08:55:28.357Z,101714.75
2022-09-05T08:58:29.069Z,101711.41
2022-09-05T09:01:04.452Z,101707.91
2022-09-05T09:03:55.836Z,101713.38
2022-09-05T09:06:33.177Z,101711.72
2022-09-05T09:09:24.542Z,101717.22
2022-09-05T09:11:55.364Z,101701.41
2022-09-05T09:14:34.024Z,101701.97
2022-09-05T09:17:15.750Z,101700.88
2022-09-05T09:19:50.981Z,101705.91
2022-09-05T09:22:26.694Z,101701.13
2022-09-05T09:25:14.334Z,101698.69
2022-09-05T09:28:46.385Z,101690.25
2022-09-05T09:31:38.924Z,101690.00
2022-09-05T09:34:17.397Z,101688.31
2022-09-05T09:37:15.115Z,101689.97
2022-09-05T09:40:00.745Z,101700.63
2022-09-05T09:42:36.284Z,101695.47
2022-09-05T09:45:27.512Z,101693.75
2022-09-05T09:48:11.183Z,101692.50
2022-09-05T09:51:04.389Z,101684.38
2022-09-05T09:53:58.005Z,101690.81
2022-09-05T09:56:58.035Z,101691.09
2022-09-05T09:59:54.051Z,101695.16
2022-09-05T10:05:02.878Z,101686.06
2022-09-05T10:10:38.942Z,101681.13
2022-09-05T10:10:49.594Z,101679.56
2022-09-05T10:12:21.535Z,101676.06
2022-09-05T10:15:08.580Z,101674.34
2022-09-05T10:18:04.101Z,101668.06
2022-09-05T10:21:16.650Z,101666.09
2022-09-05T10:23:50.486Z,101661.28
2022-09-05T10:26:24.700Z,101666.28
2022-09-05T10:29:34.035Z,101657.47
2022-09-05T10:35:05.289Z,101659.53
2022-09-05T10:35:22.381Z,101656.13
2022-09-05T10:38:17.961Z,101657.50
2022-09-05T10:41:20.128Z,101651.72
2022-09-05T10:43:47.526Z,101651.16
2022-09-05T10:46:50.802Z,101649.06
2022-09-05T10:49:30.197Z,101653.69
2022-09-05T10:52:18.368Z,101647.09
2022-09-05T10:54:48.601Z,101643.16
2022-09-05T10:57:35.222Z,101638.34
2022-09-05T11:02:16.132Z,101636.91
2022-09-05T11:03:01.573Z,101641.09
2022-09-05T11:05:37.722Z,101627.47
2022-09-05T11:08:11.233Z,101640.03
2022-09-05T11:10:45.917Z,101636.78
2022-09-05T11:13:47.834Z,101629.59
2022-09-05T11:16:26.721Z,101623.19
2022-09-05T11:19:15.530Z,101616.03
2022-09-05T11:22:23.248Z,101613.31
2022-09-05T11:24:58.940Z,101607.66
2022-09-05T11:27:40.147Z,101610.34
2022-09-05T11:30:29.836Z,101610.09
2022-09-05T11:39:48.084Z,101605.19
2022-09-05T11:40:02.934Z,101603.47
2022-09-05T11:40:03.624Z,101601.13
2022-09-05T11:42:09.257Z,101600.41
2022-09-05T11:45:08.290Z,101601.41
2022-09-05T11:47:50.060Z,101598.13
2022-09-05T11:50:29.558Z,101604.44
2022-09-05T11:53:25.076Z,101602.19
2022-09-05T11:56:03.821Z,101596.53
2022-09-05T11:58:52.160Z,101597.69
2022-09-05T12:01:44.053Z,101593.66
2022-09-05T12:04:36.626Z,101588.06
2022-09-05T12:07:26.259Z,101592.41
2022-09-05T12:10:45.955Z,101586.56
2022-09-05T12:13:29.191Z,101581.72
2022-09-05T12:16:08.617Z,101585.59
2022-09-05T12:19:02.799Z,101584.47
2022-09-05T12:22:23.943Z,101576.81
2022-09-05T12:25:45.871Z,101578.34
2022-09-05T12:29:26.783Z,101579.28
2022-09-05T12:33:17.503Z,101571.44
2022-09-05T12:36:12.246Z,101574.47
2022-09-05T12:40:55.752Z,101575.56
2022-09-05T12:41:42.814Z,101573.31
2022-09-05T12:44:37.785Z,101565.41
2022-09-05T12:47:16.601Z,101573.47
2022-09-05T12:50:32.361Z,101574.19
2022-09-05T12:53:07.024Z,101574.59
2022-09-05T12:55:40.072Z,101565.94
2022-09-05T13:02:57.166Z,101571.69
2022-09-05T13:03:02.134Z,101566.38
2022-09-05T13:04:30.054Z,101566.53
2022-09-05T13:07:05.688Z,101564.06
2022-09-05T13:10:39.436Z,101563.94
2022-09-05T13:14:53.611Z,101550.19
2022-09-05T13:15:39.309Z,101554.84
2022-09-05T13:18:13.227Z,101548.72
2022-09-05T13:20:50.297Z,101543.72
2022-09-05T13:23:23.169Z,101542.84
2022-09-05T13:25:58.614Z,101535.41
2022-09-05T13:28:43.125Z,101533.94
2022-09-05T13:37:53.927Z,101534.31
2022-09-05T13:38:01.021Z,101518.91
2022-09-05T13:38:17.617Z,101524.44
2022-09-05T13:39:50.656Z,101517.22
2022-09-05T13:42:21.331Z,101515.88
2022-09-05T13:44:53.976Z,101518.25
2022-09-05T13:47:39.847Z,101520.25
2022-09-05T13:50:13.662Z,101510.91
2022-09-05T13:52:50.011Z,101506.91
2022-09-05T13:55:21.150Z,101505.53
2022-09-05T13:58:07.480Z,101508.22
2022-09-05T14:00:38.730Z,101498.53
2022-09-05T14:03:31.551Z,101502.31
2022-09-05T14:06:47.394Z,101493.78
2022-09-05T14:09:52.597Z,101495.94
2022-09-05T14:12:48.730Z,101493.25
2022-09-05T14:16:06.658Z,101491.09
2022-09-05T14:19:06.274Z,101490.88
2022-09-05T14:21:36.932Z,101485.56
2022-09-05T14:24:21.973Z,101484.78
2022-09-05T14:27:17.015Z,101485.06
2022-09-05T14:30:00.994Z,101480.13
2022-09-05T14:37:38.985Z,101482.47
2022-09-05T14:37:54.704Z,101482.72
2022-09-05T14:39:45.055Z,101487.94
2022-09-05T14:42:24.038Z,101474.44
2022-09-05T14:45:08.606Z,101479.50
2022-09-05T14:48:02.488Z,101474.19
2022-09-05T14:50:46.330Z,101473.41
2022-09-05T14:58:49.225Z,101471.59
2022-09-05T15:02:42.572Z,101467.94
2022-09-05T15:02:53.201Z,101467.09
2022-09-05T15:05:10.995Z,101462.41
2022-09-05T15:08:16.249Z,101455.38
2022-09-05T15:12:18.641Z,101451.69
2022-09-05T15:13:57.280Z,101451.03
2022-09-05T15:16:25.669Z,101448.88
2022-09-05T15:18:53.446Z,101449.38
2022-09-05T15:21:39.907Z,101447.72
2022-09-05T15:24:24.386Z,101448.72
2022-09-05T15:26:59.467Z,101445.72
2022-09-05T15:29:36.213Z,101437.03
2022-09-05T15:32:23.249Z,101448.72
2022-09-05T15:34:51.449Z,101446.72
2022-09-05T15:37:40.877Z,101447.38
2022-09-05T15:40:23.483Z,101448.72
2022-09-05T15:43:02.188Z,101448.00
2022-09-05T15:45:35.614Z,101437.63
2022-09-05T15:48:21.315Z,101446.13
2022-09-05T15:50:51.592Z,101436.59
2022-09-05T15:53:34.593Z,101440.25
2022-09-05T15:56:21.225Z,101442.38
2022-09-05T15:58:55.235Z,101437.34
2022-09-05T16:01:59.590Z,101435.50
2022-09-05T16:06:48.413Z,101439.47
2022-09-05T16:10:38.256Z,101434.09
2022-09-05T16:10:42.867Z,101428.59
2022-09-05T16:13:14.092Z,101426.38
2022-09-05T16:21:45.988Z,101421.38
2022-09-05T16:23:28.533Z,101426.50
2022-09-05T16:23:34.271Z,101415.03
2022-09-05T16:24:41.531Z,101418.66
2022-09-05T16:27:35.737Z,101423.63
2022-09-05T16:30:12.006Z,101415.53
2022-09-05T16:32:46.539Z,101417.16
2022-09-05T16:35:25.023Z,101413.13
2022-09-05T16:38:02.226Z,101409.09
2022-09-05T16:40:38.884Z,101405.91
2022-09-05T16:43:26.882Z,101404.41
2022-09-05T16:46:27.290Z,101402.56
2022-09-05T16:48:59.987Z,101399.06
2022-09-05T16:51:38.325Z,101393.06
2022-09-05T16:54:30.986Z,101396.69
2022-09-05T16:57:05.697Z,101388.19
2022-09-05T16:59:37.489Z,101396.66
2022-09-05T17:02:25.786Z,101390.97
2022-09-05T17:05:04.876Z,101379.94
2022-09-05T17:07:42.134Z,101382.22
2022-09-05T17:10:12.202Z,101378.34
2022-09-05T17:12:40.723Z,101376.28
2022-09-05T17:15:18.830Z,101372.41
2022-09-05T17:18:19.969Z,101369.53
2022-09-05T17:20:49.818Z,101365.66
2022-09-05T17:29:15.584Z,101375.09
2022-09-05T17:29:23.804Z,101367.03
2022-09-05T17:32:20.314Z,101367.56
2022-09-05T17:35:17.709Z,101366.50
2022-09-05T17:38:14.865Z,101365.28
2022-09-05T17:41:16.154Z,101370.94
2022-09-05T17:43:43.116Z,101363.38
2022-09-05T17:46:16.304Z,101359.47
2022-09-05T17:48:57.244Z,101358.22
2022-09-05T17:51:35.363Z,101361.38
2022-09-05T17:54:03.231Z,101358.47
2022-09-05T17:56:43.791Z,101363.38
2022-09-05T17:59:14.322Z,101363.97
2022-09-05T18:01:46.131Z,101358.28
2022-09-05T18:04:35.586Z,101365.19
2022-09-05T18:07:25.514Z,101367.59
2022-09-05T18:10:12.645Z,101372.50
2022-09-05T18:13:13.316Z,101367.22
2022-09-05T18:15:34.486Z,101365.13
2022-09-05T18:18:08.630Z,101372.56
2022-09-05T18:21:12.227Z,101369.50
2022-09-05T18:26:43.474Z,101366.56
2022-09-05T18:29:31.047Z,101366.19
2022-09-05T18:32:11.998Z,101375.41
2022-09-05T18:34:40.081Z,101374.88
2022-09-05T18:37:38.171Z,101371.81
2022-09-05T18:40:08.339Z,101373.06
2022-09-05T18:42:41.076Z,101383.16
2022-09-05T18:45:17.403Z,101370.16
2022-09-05T18:48:00.096Z,101378.25
2022-09-05T18:50:32.364Z,101374.94
2022-09-05T18:53:08.735Z,101382.22
2022-09-05T18:56:11.347Z,101393.09
2022-09-05T18:58:34.338Z,101382.78
2022-09-05T19:01:29.153Z,101379.69
2022-09-05T19:04:01.170Z,101383.59
2022-09-05T19:06:35.032Z,101381.50
2022-09-05T19:09:10.682Z,101384.47
2022-09-05T19:11:53.996Z,101380.09
2022-09-05T19:14:44.942Z,101370.88
2022-09-05T19:17:18.112Z,101370.19
2022-09-05T19:20:31.050Z,101367.66
2022-09-05T19:23:10.395Z,101366.84
2022-09-05T19:25:43.734Z,101358.44
2022-09-05T19:36:46.371Z,101369.47
2022-09-05T19:37:04.960Z,101366.41
2022-09-05T19:37:14.597Z,101363.47
2022-09-05T19:37:28.975Z,101364.03
2022-09-05T19:43:24.192Z,101364.03
2022-09-05T19:47:40.430Z,101366.69
2022-09-05T19:47:50.282Z,101364.03
2022-09-05T19:48:28.240Z,101360.69
2022-09-05T19:51:18.656Z,101347.66
2022-09-05T19:53:55.232Z,101346.72
2022-09-05T19:56:33.680Z,101340.81
2022-09-05T19:59:00.381Z,101337.78
2022-09-05T20:01:27.401Z,101339.84
2022-09-05T20:03:54.633Z,101333.28
2022-09-05T20:06:29.893Z,101333.56
2022-09-05T20:09:09.800Z,101328.53
2022-09-05T20:11:45.987Z,101333.13
2022-09-05T20:14:31.025Z,101330.78
2022-09-05T20:17:17.083Z,101327.41
2022-09-05T20:19:45.046Z,101324.91
2022-09-05T20:22:47.398Z,101335.66
2022-09-05T20:25:41.630Z,101327.69
2022-09-05T20:28:13.231Z,101330.63
2022-09-05T20:30:43.252Z,101340.53
2022-09-05T20:33:32.381Z,101333.22
2022-09-05T20:41:42.024Z,101341.63
2022-09-05T20:43:23.237Z,101336.03
2022-09-05T20:43:26.920Z,101342.84
2022-09-05T20:44:41.794Z,101342.97
2022-09-05T20:54:04.500Z,101339.31
2022-09-05T20:54:16.037Z,101337.63
2022-09-05T20:54:21.743Z,101337.88
2022-09-05T20:55:44.995Z,101335.94
2022-09-05T20:58:19.905Z,101330.66
2022-09-05T21:01:20.906Z,101328.09
2022-09-05T21:03:54.461Z,101328.94
2022-09-05T21:06:25.711Z,101321.97
2022-09-05T21:08:56.284Z,101317.63
2022-09-05T21:11:31.447Z,101316.66
2022-09-05T21:14:02.631Z,101315.00
2022-09-05T21:16:33.176Z,101308.56
2022-09-05T21:18:59.883Z,101315.56
2022-09-05T21:21:30.342Z,101309.44
2022-09-05T21:24:18.212Z,101311.34
2022-09-05T21:26:46.842Z,101301.03
2022-09-05T21:29:13.405Z,101304.78
2022-09-05T21:31:51.401Z,101307.72
2022-09-05T21:34:31.411Z,101306.28
2022-09-05T21:37:06.401Z,101304.75
2022-09-05T21:39:40.194Z,101303.63
2022-09-05T21:42:38.881Z,101301.75
2022-09-05T21:47:42.728Z,101298.50
2022-09-05T21:47:52.460Z,101290.97
2022-09-05T21:50:30.646Z,101297.22
2022-09-05T21:53:17.444Z,101293.63
2022-09-05T21:59:18.249Z,101296.28
2022-09-05T21:59:24.361Z,101300.75
2022-09-05T22:01:21.302Z,101294.72
2022-09-05T22:04:09.392Z,101296.66
2022-09-05T22:06:36.907Z,101290.53
2022-09-05T22:09:13.667Z,101285.47
2022-09-05T22:11:41.015Z,101274.59
2022-09-05T22:14:09.112Z,101278.63
2022-09-05T22:16:44.737Z,101276.22
2022-09-05T22:19:17.900Z,101273.97
2022-09-05T22:21:44.755Z,101267.84
2022-09-05T22:24:12.452Z,101261.97
2022-09-05T22:27:11.733Z,101260.41
2022-09-05T22:29:34.545Z,101249.84
2022-09-05T22:32:01.570Z,101255.81
2022-09-05T22:38:07.050Z,101264.94
2022-09-05T22:40:36.749Z,101261.31
2022-09-05T22:43:06.351Z,101261.53
2022-09-05T22:45:34.757Z,101263.97
2022-09-05T22:48:08.748Z,101265.66
2022-09-05T22:50:35.535Z,101275.69
2022-09-05T22:56:33.349Z,101282.75
2022-09-05T22:58:59.985Z,101279.03
2022-09-05T23:01:27.123Z,101278.94
2022-09-05T23:03:53.784Z,101275.31
2022-09-05T23:06:20.393Z,101278.81
2022-09-05T23:08:47.080Z,101281.94
2022-09-05T23:11:16.396Z,101280.91
2022-09-05T23:13:43.427Z,101283.56
2022-09-05T23:16:10.877Z,101277.03
2022-09-05T23:18:37.793Z,101275.25
2022-09-05T23:21:09.993Z,101269.09
2022-09-05T23:23:37.824Z,101268.25
2022-09-05T23:26:07.666Z,101270.91
2022-09-05T23:28:34.399Z,101264.34
2022-09-05T23:31:01.730Z,101258.22
2022-09-05T23:33:30.850Z,101263.19
2022-09-05T23:36:06.948Z,101269.69
2022-09-05T23:38:34.263Z,101270.97
2022-09-05T23:41:10.410Z,101273.13
2022-09-05T23:43:37.325Z,101268.47
2022-09-05T23:46:04.515Z,101270.13
2022-09-05T23:48:32.130Z,101279.69
2022-09-05T23:51:07.606Z,101285.31
2022-09-05T23:53:34.657Z,101273.88
2022-09-05T23:56:05.916Z,101278.66
2022-09-05T23:58:33.183Z,101265.69
